Time;durP1;ratioP1;P1;durP2;ratioP2;P2;SDS_P1;SDS_P2;PMS_P1;PMS_P2;Temp;Humidity;BMP_temperature;BMP_pressure;BME280_temperature;BME280_humidity;BME280_pressure;Samples;Min_cycle;Max_cycle;Signal;HPM_P1;HPM_P2
2023/03/30 00:01:33;;;;;;;7.22;2.92;;;13.90;99.90;;;;;;4961173;28;20542;-79
2023/03/30 00:03:59;;;;;;;7.53;2.88;;;14.00;99.90;;;;;;4954379;28;20133;-79
2023/03/30 00:06:25;;;;;;;6.97;2.70;;;14.00;99.90;;;;;;4958493;28;20026;-79
2023/03/30 00:08:57;;;;;;;8.95;3.08;;;14.00;99.90;;;;;;4955387;28;20475;-80
2023/03/30 00:11:23;;;;;;;15.80;2.80;;;14.00;99.90;;;;;;4954594;28;20042;-79
2023/03/30 00:13:49;;;;;;;4.70;2.22;;;14.00;99.90;;;;;;4955937;28;20841;-80
2023/03/30 00:16:16;;;;;;;9.48;2.75;;;13.90;99.90;;;;;;4944791;28;20034;-79
2023/03/30 00:18:43;;;;;;;9.02;3.08;;;13.90;99.90;;;;;;4955357;28;20065;-79
2023/03/30 00:21:10;;;;;;;7.95;2.65;;;14.00;99.90;;;;;;4945346;28;20691;-78
2023/03/30 00:23:37;;;;;;;7.35;2.90;;;14.00;99.90;;;;;;4955824;28;20034;-79
2023/03/30 00:26:03;;;;;;;5.95;2.60;;;14.10;99.90;;;;;;4953386;28;20031;-79
2023/03/30 00:28:29;;;;;;;6.57;2.30;;;14.10;99.90;;;;;;4956878;28;20154;-80
2023/03/30 00:30:56;;;;;;;5.43;2.47;;;14.10;99.90;;;;;;4954791;28;20120;-79
2023/03/30 00:33:21;;;;;;;4.75;2.60;;;14.20;99.90;;;;;;4938892;28;20054;-78
2023/03/30 00:35:55;;;;;;;7.43;2.53;;;14.20;99.90;;;;;;4955786;28;20463;-79
2023/03/30 00:38:21;;;;;;;4.57;2.05;;;14.20;99.90;;;;;;4958147;28;20027;-79
2023/03/30 00:40:56;;;;;;;8.65;2.42;;;14.30;99.90;;;;;;4953591;28;20047;-81
2023/03/30 00:43:23;;;;;;;8.13;2.33;;;14.30;99.90;;;;;;4955446;28;20023;-79
2023/03/30 00:45:49;;;;;;;7.40;2.20;;;14.30;99.90;;;;;;4959725;28;20019;-79
2023/03/30 00:48:31;;;;;;;6.55;2.42;;;14.30;99.90;;;;;;4938230;28;20438;-79
2023/03/30 00:51:08;;;;;;;10.38;2.50;;;14.30;99.90;;;;;;4954093;28;20023;-79
2023/03/30 00:53:41;;;;;;;8.95;2.58;;;14.40;99.90;;;;;;4953537;28;20043;-79
2023/03/30 00:56:08;;;;;;;7.88;2.40;;;14.40;99.90;;;;;;4955922;28;20522;-82
2023/03/30 00:58:36;;;;;;;6.68;2.10;;;14.30;99.90;;;;;;4957520;28;20039;-79
2023/03/30 01:01:05;;;;;;;5.60;2.42;;;14.40;99.90;;;;;;4937216;28;20058;-80
2023/03/30 01:03:34;;;;;;;6.40;2.20;;;14.40;99.90;;;;;;4937566;28;20019;-79
2023/03/30 01:06:03;;;;;;;8.43;2.50;;;14.30;99.90;;;;;;4954691;28;20023;-80
2023/03/30 01:08:32;;;;;;;7.60;2.70;;;14.30;99.90;;;;;;4955789;28;20443;-79
2023/03/30 01:11:02;;;;;;;10.77;2.35;;;14.30;99.90;;;;;;4937609;28;20048;-80
2023/03/30 01:13:30;;;;;;;10.25;2.03;;;14.30;99.90;;;;;;4952412;28;20101;-79
2023/03/30 01:16:02;;;;;;;3.85;1.90;;;14.30;99.90;;;;;;4944450;28;20055;-79
2023/03/30 01:18:58;;;;;;;5.45;2.28;;;14.30;99.90;;;;;;4945068;28;20023;-79
2023/03/30 01:21:38;;;;;;;14.02;2.20;;;14.20;99.90;;;;;;4955783;28;20499;-78
2023/03/30 01:24:17;;;;;;;6.63;2.00;;;14.30;99.90;;;;;;4957025;28;20037;-79
2023/03/30 01:27:04;;;;;;;7.45;2.08;;;14.20;99.90;;;;;;4956054;28;20029;-79
2023/03/30 01:29:56;;;;;;;7.28;2.45;;;14.20;99.90;;;;;;4938439;28;20070;-78
2023/03/30 01:32:54;;;;;;;13.23;2.65;;;14.10;99.90;;;;;;4954812;28;20038;-80
2023/03/30 01:35:41;;;;;;;9.07;2.40;;;14.10;99.90;;;;;;4922356;28;20122;-80
2023/03/30 01:38:20;;;;;;;6.82;2.17;;;14.10;99.90;;;;;;4950920;28;20467;-80
2023/03/30 01:41:08;;;;;;;7.82;1.85;;;14.10;99.90;;;;;;4957310;28;20362;-79
2023/03/30 01:43:47;;;;;;;9.88;2.00;;;14.10;99.90;;;;;;4937451;28;20035;-79
2023/03/30 01:46:29;;;;;;;12.75;2.40;;;14.10;99.90;;;;;;4955105;28;20030;-79
2023/03/30 01:49:10;;;;;;;15.47;2.20;;;14.10;99.90;;;;;;4932649;28;20034;-81
2023/03/30 01:51:53;;;;;;;8.18;1.98;;;14.10;99.90;;;;;;4955067;28;20283;-79
2023/03/30 01:54:24;;;;;;;8.77;2.33;;;14.10;99.90;;;;;;4950862;28;20046;-79
2023/03/30 01:57:05;;;;;;;7.15;2.20;;;14.00;99.90;;;;;;4939575;28;20511;-79
2023/03/30 01:59:51;;;;;;;4.50;2.33;;;13.90;99.90;;;;;;4957659;28;20051;-81
2023/03/30 02:02:20;;;;;;;7.78;2.40;;;13.90;99.90;;;;;;4955793;28;20479;-82
2023/03/30 02:04:47;;;;;;;11.07;2.17;;;13.90;99.90;;;;;;4956708;28;20023;-79
2023/03/30 02:07:21;;;;;;;7.35;2.47;;;13.80;99.90;;;;;;4957316;28;20059;-79
2023/03/30 02:09:50;;;;;;;9.35;2.60;;;13.90;99.90;;;;;;4956626;28;20026;-79
2023/03/30 02:12:18;;;;;;;5.18;2.20;;;13.80;99.90;;;;;;4954970;28;20050;-78
2023/03/30 02:14:45;;;;;;;10.77;2.53;;;13.90;99.90;;;;;;4956369;28;20031;-79
2023/03/30 02:17:14;;;;;;;5.45;2.25;;;13.90;99.90;;;;;;4958227;28;20026;-79
2023/03/30 02:19:40;;;;;;;4.70;2.03;;;13.90;99.90;;;;;;4953173;28;20027;-80
2023/03/30 02:22:09;;;;;;;9.63;2.47;;;13.90;99.90;;;;;;4957451;28;20015;-80
2023/03/30 02:24:35;;;;;;;5.18;2.45;;;13.90;99.90;;;;;;4933650;28;20027;-79
2023/03/30 02:27:01;;;;;;;7.15;2.22;;;13.90;99.90;;;;;;4958826;28;20474;-79
2023/03/30 02:29:27;;;;;;;5.28;2.05;;;13.90;99.90;;;;;;4961704;28;20516;-79
2023/03/30 02:31:56;;;;;;;11.68;2.08;;;13.90;99.90;;;;;;4958800;28;20023;-79
2023/03/30 02:34:31;;;;;;;5.40;2.13;;;13.90;99.90;;;;;;4943338;28;20054;-80
2023/03/30 02:37:11;;;;;;;3.03;1.88;;;13.90;99.90;;;;;;4953544;28;20035;-79
2023/03/30 02:39:55;;;;;;;4.68;2.03;;;13.90;99.90;;;;;;4956384;28;20022;-79
2023/03/30 02:42:30;;;;;;;5.97;2.20;;;13.80;99.90;;;;;;4940205;28;20043;-79
2023/03/30 02:45:04;;;;;;;9.82;1.98;;;13.80;99.90;;;;;;4940359;28;20572;-79
2023/03/30 02:47:42;;;;;;;8.30;2.58;;;13.90;99.90;;;;;;4957208;28;20027;-79
2023/03/30 02:50:23;;;;;;;7.63;2.30;;;13.90;99.90;;;;;;4957167;28;20111;-81
2023/03/30 02:52:51;;;;;;;8.43;2.20;;;13.90;99.90;;;;;;4954322;28;20035;-84
2023/03/30 02:55:22;;;;;;;8.75;2.22;;;13.90;99.90;;;;;;4940152;28;20129;-82
2023/03/30 02:58:32;;;;;;;8.60;2.00;;;13.90;99.90;;;;;;4961018;28;20490;-80
2023/03/30 03:01:08;;;;;;;6.95;1.92;;;13.90;99.90;;;;;;4962294;28;20039;-80
2023/03/30 03:03:42;;;;;;;6.53;2.22;;;13.90;99.90;;;;;;4960766;28;20018;-79
2023/03/30 03:06:08;;;;;;;3.65;1.98;;;13.90;99.90;;;;;;4956349;28;20042;-79
2023/03/30 03:08:40;;;;;;;7.47;2.10;;;13.90;99.90;;;;;;4956884;28;20030;-79
2023/03/30 03:11:06;;;;;;;2.47;1.65;;;13.90;99.90;;;;;;4956354;28;20475;-79
2023/03/30 03:13:35;;;;;;;4.70;1.77;;;14.00;99.90;;;;;;4943292;28;20042;-80
2023/03/30 03:16:02;;;;;;;4.80;1.85;;;14.10;99.90;;;;;;4958884;28;20028;-80
2023/03/30 03:18:31;;;;;;;8.20;1.70;;;14.10;99.90;;;;;;4956604;28;20031;-80
2023/03/30 03:20:57;;;;;;;3.70;2.20;;;14.20;99.90;;;;;;4950555;28;20034;-79
2023/03/30 03:23:23;;;;;;;5.50;1.92;;;14.30;99.90;;;;;;4965672;28;20038;-81
2023/03/30 03:25:49;;;;;;;6.63;2.08;;;14.40;99.90;;;;;;4941561;28;20039;-79
2023/03/30 03:28:15;;;;;;;9.40;1.90;;;14.40;99.90;;;;;;4958471;28;20592;-81
2023/03/30 03:30:40;;;;;;;8.35;2.20;;;14.50;99.90;;;;;;4960192;28;20015;-80
2023/03/30 03:33:06;;;;;;;4.60;1.40;;;14.60;99.90;;;;;;4957234;28;20042;-79
2023/03/30 03:35:32;;;;;;;5.97;1.90;;;14.70;99.90;;;;;;4939495;28;20174;-79
2023/03/30 03:38:01;;;;;;;6.35;1.80;;;14.70;99.90;;;;;;4940282;28;20022;-80
2023/03/30 03:40:26;;;;;;;8.65;1.45;;;14.90;99.90;;;;;;4942750;28;20050;-81
2023/03/30 03:42:52;;;;;;;7.00;1.40;;;15.00;99.90;;;;;;4943409;28;20134;-80
2023/03/30 03:45:17;;;;;;;3.63;1.75;;;15.10;99.90;;;;;;4959686;28;20034;-81
2023/03/30 03:47:43;;;;;;;7.78;1.63;;;15.30;99.90;;;;;;4958987;28;20171;-80
2023/03/30 03:50:09;;;;;;;4.25;1.50;;;15.40;99.90;;;;;;4959806;28;20030;-80
2023/03/30 03:52:36;;;;;;;4.47;1.65;;;15.40;99.90;;;;;;4957421;28;20050;-80
2023/03/30 03:55:03;;;;;;;6.80;1.60;;;15.50;99.90;;;;;;4941014;28;20039;-81
2023/03/30 03:57:29;;;;;;;6.45;1.50;;;15.60;99.90;;;;;;4957112;28;20062;-79
2023/03/30 03:59:58;;;;;;;8.00;1.40;;;15.60;99.90;;;;;;4956363;28;20051;-81
2023/03/30 04:02:24;;;;;;;5.82;1.83;;;15.60;99.90;;;;;;4959334;28;20027;-80
2023/03/30 04:04:51;;;;;;;6.18;1.23;;;15.60;99.90;;;;;;4956743;28;20101;-81
2023/03/30 04:07:20;;;;;;;9.48;1.50;;;15.70;99.90;;;;;;4945139;28;20023;-80
2023/03/30 04:09:45;;;;;;;7.00;1.88;;;15.70;99.90;;;;;;4939177;28;20393;-82
2023/03/30 04:12:11;;;;;;;6.40;1.70;;;15.80;99.90;;;;;;4945874;28;20023;-81
2023/03/30 04:14:39;;;;;;;3.58;1.65;;;15.70;99.90;;;;;;4952702;28;20070;-80
2023/03/30 04:17:05;;;;;;;5.47;1.58;;;15.70;99.90;;;;;;4962356;28;20066;-79
2023/03/30 04:19:30;;;;;;;6.50;1.35;;;15.70;99.90;;;;;;4960780;28;20110;-79
2023/03/30 04:21:57;;;;;;;3.72;1.60;;;15.70;99.90;;;;;;4957431;28;20030;-80
2023/03/30 04:24:26;;;;;;;2.97;1.40;;;15.60;99.90;;;;;;4957288;28;20514;-79
2023/03/30 04:26:52;;;;;;;5.30;1.55;;;15.60;99.90;;;;;;4939478;28;20436;-79
2023/03/30 04:29:19;;;;;;;6.35;2.00;;;15.60;99.90;;;;;;4956111;28;20217;-79
2023/03/30 04:31:45;;;;;;;10.20;2.00;;;15.60;99.90;;;;;;4945042;28;20046;-79
2023/03/30 04:34:15;;;;;;;12.50;1.95;;;15.50;99.90;;;;;;4940003;28;20403;-80
2023/03/30 04:36:42;;;;;;;4.55;1.90;;;15.40;99.90;;;;;;4958001;28;20106;-79
2023/03/30 04:39:10;;;;;;;7.40;2.13;;;15.40;99.90;;;;;;4942358;28;20030;-79
2023/03/30 04:41:36;;;;;;;5.95;1.67;;;15.30;99.90;;;;;;4955006;28;20034;-81
2023/03/30 04:44:08;;;;;;;5.65;1.60;;;15.30;99.90;;;;;;4954622;28;20023;-81
2023/03/30 04:46:35;;;;;;;5.60;1.70;;;15.30;99.90;;;;;;4940683;28;20037;-79
2023/03/30 04:49:01;;;;;;;7.30;1.80;;;15.30;99.90;;;;;;4954300;28;20019;-82
2023/03/30 04:51:27;;;;;;;3.55;1.48;;;15.30;99.90;;;;;;4952917;28;20120;-83
2023/03/30 04:53:53;;;;;;;4.95;1.67;;;15.30;99.90;;;;;;4955845;28;20450;-79
2023/03/30 04:56:19;;;;;;;6.97;1.90;;;15.20;99.90;;;;;;4957490;28;20027;-81
2023/03/30 04:58:48;;;;;;;4.07;1.48;;;15.20;99.90;;;;;;4937413;28;20067;-81
2023/03/30 05:01:14;;;;;;;5.45;1.50;;;15.30;99.90;;;;;;4938832;28;22096;-86
2023/03/30 05:03:42;;;;;;;6.32;1.95;;;15.30;99.90;;;;;;4956326;28;20033;-79
2023/03/30 05:06:07;;;;;;;6.45;1.80;;;15.30;99.90;;;;;;4953783;28;20030;-80
2023/03/30 05:08:34;;;;;;;4.45;1.73;;;15.20;99.90;;;;;;4954389;28;20073;-83
2023/03/30 05:11:03;;;;;;;11.00;1.85;;;15.30;99.90;;;;;;4953969;28;20035;-81
2023/03/30 05:13:29;;;;;;;7.90;2.13;;;15.30;99.90;;;;;;4953374;28;20046;-82
2023/03/30 05:15:56;;;;;;;6.68;1.50;;;15.30;99.90;;;;;;4961976;28;20041;-80
2023/03/30 05:18:21;;;;;;;7.80;1.35;;;15.30;99.90;;;;;;4961564;28;20029;-80
2023/03/30 05:20:47;;;;;;;5.53;1.25;;;15.40;99.90;;;;;;4955072;28;20018;-83
2023/03/30 05:23:13;;;;;;;7.43;1.88;;;15.40;99.90;;;;;;4953700;28;20023;-81
2023/03/30 05:25:45;;;;;;;6.97;1.58;;;15.40;99.90;;;;;;4956984;28;20030;-80
2023/03/30 05:28:11;;;;;;;10.77;1.80;;;15.40;99.90;;;;;;4937814;28;20105;-82
2023/03/30 05:30:36;;;;;;;6.95;1.63;;;15.50;99.90;;;;;;4938295;28;20031;-82
2023/03/30 05:33:02;;;;;;;7.15;1.42;;;15.40;99.90;;;;;;4958717;28;20518;-82
2023/03/30 05:35:28;;;;;;;5.00;1.48;;;15.50;99.90;;;;;;4956909;28;20030;-82
2023/03/30 05:37:54;;;;;;;2.25;1.27;;;15.40;99.90;;;;;;4955661;28;20506;-82
2023/03/30 05:40:19;;;;;;;4.40;1.58;;;15.50;99.90;;;;;;4956374;28;20467;-80
2023/03/30 05:42:45;;;;;;;3.50;1.38;;;15.50;99.90;;;;;;4954918;28;20038;-81
2023/03/30 05:45:11;;;;;;;4.28;1.80;;;15.50;99.90;;;;;;4944484;28;20122;-79
2023/03/30 05:47:38;;;;;;;9.50;1.90;;;15.40;99.90;;;;;;4955463;28;20030;-79
2023/03/30 05:50:05;;;;;;;4.68;1.25;;;15.40;99.90;;;;;;4958063;28;20491;-86
2023/03/30 05:52:32;;;;;;;7.82;1.65;;;15.50;99.90;;;;;;4934235;28;20483;-80
2023/03/30 05:55:00;;;;;;;3.72;1.40;;;15.40;99.90;;;;;;4954640;28;20153;-85
2023/03/30 05:57:26;;;;;;;5.32;1.58;;;15.50;99.90;;;;;;4934352;28;20614;-81
2023/03/30 05:59:52;;;;;;;6.05;2.05;;;15.60;99.90;;;;;;4961457;28;20102;-80
2023/03/30 06:02:18;;;;;;;4.85;2.00;;;15.60;99.90;;;;;;4947708;28;20174;-80
2023/03/30 06:04:44;;;;;;;4.75;1.63;;;15.50;99.90;;;;;;4960394;28;20591;-81
2023/03/30 06:07:12;;;;;;;7.28;1.60;;;15.60;99.90;;;;;;4941068;28;20027;-82
2023/03/30 06:09:37;;;;;;;6.70;1.60;;;15.50;99.90;;;;;;4946507;28;20080;-81
2023/03/30 06:12:04;;;;;;;6.25;1.80;;;15.70;99.90;;;;;;4957405;28;20063;-85
2023/03/30 06:14:29;;;;;;;3.40;1.58;;;15.60;99.90;;;;;;4949502;28;20522;-86
2023/03/30 06:16:55;;;;;;;5.53;1.40;;;15.60;99.90;;;;;;4947457;28;20054;-81
2023/03/30 06:19:23;;;;;;;5.78;1.52;;;15.60;99.90;;;;;;4947878;28;20034;-80
2023/03/30 06:21:49;;;;;;;7.07;1.50;;;15.60;99.90;;;;;;4958682;28;20030;-81
2023/03/30 06:24:15;;;;;;;6.93;1.42;;;15.60;99.90;;;;;;4958631;28;20499;-81
2023/03/30 06:26:40;;;;;;;5.30;1.83;;;15.60;99.90;;;;;;4958538;28;20019;-80
2023/03/30 06:29:06;;;;;;;11.77;1.60;;;15.60;99.90;;;;;;4946363;28;20049;-79
2023/03/30 06:31:32;;;;;;;8.80;1.90;;;15.60;99.90;;;;;;4939073;28;20412;-80
2023/03/30 06:33:58;;;;;;;6.97;1.50;;;15.50;99.90;;;;;;4956438;28;20536;-78
2023/03/30 06:36:23;;;;;;;11.23;1.50;;;15.50;99.90;;;;;;4960594;28;20065;-79
2023/03/30 06:38:49;;;;;;;4.22;1.80;;;15.50;99.90;;;;;;4953249;28;20015;-80
2023/03/30 06:41:15;;;;;;;2.50;1.38;;;15.50;99.90;;;;;;4958356;28;20155;-80
2023/03/30 06:43:40;;;;;;;2.95;1.30;;;15.50;99.90;;;;;;4958152;28;20101;-80
2023/03/30 06:46:07;;;;;;;4.30;1.67;;;15.40;99.90;;;;;;4942017;28;20029;-79
2023/03/30 06:51:11;;;;;;;4.47;1.70;;;15.30;99.90;;;;;;4990884;28;20354;-80
2023/03/30 06:53:37;;;;;;;7.93;1.85;;;15.20;99.90;;;;;;4999925;28;20033;-87
2023/03/30 06:56:03;;;;;;;5.75;1.90;;;15.10;99.90;;;;;;4991027;28;20052;-87
2023/03/30 06:58:29;;;;;;;9.00;2.30;;;15.00;99.90;;;;;;4982240;28;20037;-87
2023/03/30 07:00:55;;;;;;;6.32;1.88;;;14.80;99.90;;;;;;4998081;28;20152;-88
2023/03/30 07:03:21;;;;;;;10.50;2.13;;;14.70;99.90;;;;;;4990660;28;20030;-86
2023/03/30 07:05:51;;;;;;;8.15;2.10;;;14.70;99.90;;;;;;4996934;28;20037;-89
2023/03/30 07:08:18;;;;;;;9.02;2.65;;;14.60;99.90;;;;;;4995808;28;20026;-87
2023/03/30 07:10:46;;;;;;;7.95;1.85;;;14.40;99.90;;;;;;4977343;28;20924;-86
2023/03/30 07:13:12;;;;;;;4.22;2.20;;;14.30;99.90;;;;;;4996928;28;20051;-87
2023/03/30 07:15:37;;;;;;;5.95;2.30;;;14.20;99.90;;;;;;4996272;28;20018;-88
2023/03/30 07:18:03;;;;;;;9.00;2.72;;;14.10;99.90;;;;;;4986811;28;20025;-83
2023/03/30 07:20:29;;;;;;;6.50;2.55;;;14.00;99.90;;;;;;4986156;28;20025;-85
2023/03/30 07:22:54;;;;;;;8.38;2.63;;;13.90;99.90;;;;;;5002792;28;20022;-87
2023/03/30 07:25:20;;;;;;;9.50;2.45;;;13.80;99.90;;;;;;4991445;28;20300;-88
2023/03/30 07:27:46;;;;;;;12.00;2.28;;;13.80;99.90;;;;;;4989339;28;20042;-88
2023/03/30 07:30:13;;;;;;;6.70;2.08;;;13.70;99.90;;;;;;4997190;28;20469;-87
2023/03/30 07:32:39;;;;;;;8.73;2.13;;;13.70;99.90;;;;;;4986540;28;20030;-82
2023/03/30 07:35:07;;;;;;;8.38;2.60;;;13.50;99.90;;;;;;4980701;28;20344;-85
2023/03/30 07:37:33;;;;;;;6.88;2.28;;;13.50;99.90;;;;;;5000059;28;20034;-83
2023/03/30 07:39:59;;;;;;;7.05;2.03;;;13.30;99.90;;;;;;4998791;28;20033;-92
2023/03/30 07:42:25;;;;;;;5.63;1.90;;;13.50;99.90;;;;;;4987750;28;20124;-86
2023/03/30 07:44:50;;;;;;;12.25;2.03;;;13.40;99.90;;;;;;4981005;28;20160;-85
2023/03/30 07:47:16;;;;;;;8.70;2.03;;;13.40;99.90;;;;;;4995392;28;20069;-83
2023/03/30 07:49:42;;;;;;;9.30;1.80;;;13.40;99.90;;;;;;4994447;28;20523;-83
2023/03/30 07:52:08;;;;;;;11.45;2.58;;;13.40;99.90;;;;;;4999444;28;20018;-86
2023/03/30 07:54:36;;;;;;;7.65;1.95;;;13.50;99.90;;;;;;5149299;23;20046;-84
2023/03/30 07:57:01;;;;;;;9.25;1.48;;;13.40;99.90;;;;;;4945786;28;20037;-84
2023/03/30 07:59:30;;;;;;;7.47;1.40;;;13.40;99.90;;;;;;4957434;28;20203;-82
2023/03/30 08:01:56;;;;;;;6.20;1.52;;;13.50;99.90;;;;;;4953464;28;20034;-79
2023/03/30 08:04:24;;;;;;;5.22;1.33;;;13.60;99.90;;;;;;4937941;28;20782;-84
2023/03/30 08:06:51;;;;;;;14.45;1.58;;;13.80;99.90;;;;;;4934265;28;20409;-83
2023/03/30 08:09:17;;;;;;;7.22;1.45;;;13.90;99.90;;;;;;4953209;28;20045;-86
2023/03/30 08:11:42;;;;;;;5.38;1.67;;;13.90;99.90;;;;;;4953437;28;20026;-82
2023/03/30 08:14:08;;;;;;;8.02;1.35;;;14.00;99.90;;;;;;4938060;28;20043;-79
2023/03/30 08:16:34;;;;;;;7.38;1.50;;;14.20;99.90;;;;;;4952372;28;20027;-83
2023/03/30 08:19:02;;;;;;;7.72;2.08;;;14.30;99.90;;;;;;4938692;28;20027;-83
2023/03/30 08:21:27;;;;;;;10.50;1.38;;;14.40;99.90;;;;;;4951335;28;20388;-79
2023/03/30 08:23:57;;;;;;;7.03;1.90;;;14.60;99.90;;;;;;4952698;28;20015;-84
2023/03/30 08:26:25;;;;;;;5.97;1.52;;;14.70;99.90;;;;;;4938078;28;20111;-84
2023/03/30 08:28:51;;;;;;;6.65;1.40;;;14.90;99.90;;;;;;4953676;28;20023;-78
2023/03/30 08:31:17;;;;;;;6.32;2.00;;;15.10;99.90;;;;;;4955041;28;20473;-80
2023/03/30 08:33:47;;;;;;;6.45;1.83;;;15.20;99.90;;;;;;4953932;28;20026;-82
2023/03/30 08:36:15;;;;;;;6.30;1.52;;;15.40;99.90;;;;;;4934542;28;20023;-83
2023/03/30 08:38:41;;;;;;;6.78;1.63;;;15.50;99.90;;;;;;4956290;28;20321;-83
2023/03/30 08:41:28;;;;;;;7.55;1.80;;;15.60;99.90;;;;;;4968365;28;20070;-80
2023/03/30 08:43:57;;;;;;;9.55;2.03;;;15.80;99.90;;;;;;4953013;28;20018;-78
2023/03/30 08:46:23;;;;;;;10.88;2.03;;;16.00;99.90;;;;;;4953066;28;20024;-87
2023/03/30 08:48:51;;;;;;;7.97;1.85;;;16.20;99.90;;;;;;4955946;28;20026;-82
2023/03/30 08:51:24;;;;;;;6.80;1.77;;;16.20;99.90;;;;;;4956886;28;20019;-87
2023/03/30 08:53:55;;;;;;;9.80;1.85;;;16.40;99.90;;;;;;4936862;28;20043;-84
2023/03/30 08:56:26;;;;;;;12.45;2.00;;;16.20;99.90;;;;;;4954862;28;20348;-84
2023/03/30 08:59:28;;;;;;;9.93;2.05;;;16.10;99.90;;;;;;4953893;28;20027;-83
2023/03/30 09:02:15;;;;;;;8.40;1.90;;;15.90;99.90;;;;;;4956427;28;20132;-91
2023/03/30 09:04:45;;;;;;;10.27;1.38;;;15.80;99.90;;;;;;4937483;28;20030;-85
2023/03/30 09:07:22;;;;;;;7.55;1.48;;;15.70;99.90;;;;;;4954609;28;20026;-85
2023/03/30 09:09:52;;;;;;;12.13;2.15;;;15.60;99.90;;;;;;4955852;28;20034;-89
2023/03/30 09:12:20;;;;;;;6.22;1.92;;;15.70;99.90;;;;;;4940257;28;20184;-87
2023/03/30 09:14:52;;;;;;;11.80;2.55;;;15.60;99.90;;;;;;4955757;28;20678;-85
2023/03/30 09:17:24;;;;;;;7.25;1.42;;;15.60;99.90;;;;;;4956289;28;20031;-86
2023/03/30 09:20:05;;;;;;;8.63;2.10;;;15.50;99.90;;;;;;4935545;28;20050;-86
2023/03/30 09:22:37;;;;;;;15.75;2.08;;;15.50;99.90;;;;;;4955150;28;20189;-86
2023/03/30 09:25:18;;;;;;;9.05;1.80;;;15.30;99.90;;;;;;4937865;28;20089;-85
2023/03/30 09:28:07;;;;;;;10.60;1.58;;;15.40;99.90;;;;;;4944392;28;20023;-88
2023/03/30 09:31:07;;;;;;;8.35;1.90;;;15.20;99.90;;;;;;4950825;28;20037;-82
2023/03/30 09:33:57;;;;;;;12.25;3.10;;;15.30;99.90;;;;;;4952885;28;20047;-82
2023/03/30 09:36:33;;;;;;;6.47;1.35;;;15.50;99.90;;;;;;4949212;28;20093;-78
2023/03/30 09:38:59;;;;;;;12.25;2.03;;;15.70;99.90;;;;;;4934436;28;20026;-78
2023/03/30 09:42:06;;;;;;;9.52;1.55;;;15.60;99.90;;;;;;4935949;28;20039;-82
2023/03/30 09:44:40;;;;;;;9.38;1.98;;;15.70;99.90;;;;;;4935985;28;20086;-80
2023/03/30 09:47:27;;;;;;;9.45;2.38;;;15.90;99.90;;;;;;4935978;28;20123;-82
2023/03/30 09:49:58;;;;;;;6.90;1.65;;;16.10;99.90;;;;;;4935562;28;20497;-84
2023/03/30 09:52:26;;;;;;;8.27;1.38;;;16.00;99.90;;;;;;4935391;28;20031;-79
2023/03/30 09:54:52;;;;;;;9.70;2.03;;;16.50;99.90;;;;;;4937806;28;20047;-83
2023/03/30 09:57:30;;;;;;;13.45;2.17;;;17.50;99.90;;;;;;4956531;28;20045;-84
2023/03/30 09:59:58;;;;;;;6.53;1.85;;;18.50;99.90;;;;;;4935863;28;20382;-78
2023/03/30 10:02:27;;;;;;;9.65;1.75;;;18.60;99.90;;;;;;4936752;28;20338;-82
2023/03/30 10:04:59;;;;;;;11.15;1.95;;;18.20;99.90;;;;;;4933970;28;20122;-78
2023/03/30 10:07:40;;;;;;;5.45;1.50;;;17.50;99.90;;;;;;4950211;28;20027;-79
2023/03/30 10:10:26;;;;;;;10.75;2.08;;;16.80;99.90;;;;;;4937065;28;20023;-84
2023/03/30 10:13:06;;;;;;;12.23;2.10;;;16.50;99.90;;;;;;4937877;28;20039;-81
2023/03/30 10:15:38;;;;;;;9.38;1.85;;;16.30;99.90;;;;;;4925430;28;20303;-83
2023/03/30 10:18:26;;;;;;;6.18;1.83;;;16.10;99.90;;;;;;4934976;28;20474;-79
2023/03/30 10:21:00;;;;;;;8.35;1.67;;;16.10;99.90;;;;;;4933523;28;20034;-79
2023/03/30 10:23:38;;;;;;;10.15;1.98;;;16.40;99.90;;;;;;4938199;28;20027;-81
2023/03/30 10:26:09;;;;;;;14.73;2.15;;;16.50;99.90;;;;;;4939397;28;20558;-80
2023/03/30 10:28:35;;;;;;;13.02;2.15;;;16.50;99.90;;;;;;4941243;28;20058;-80
2023/03/30 10:31:06;;;;;;;11.45;2.00;;;16.50;99.90;;;;;;4940767;28;20464;-82
2023/03/30 10:33:40;;;;;;;8.80;2.38;;;16.60;99.90;;;;;;4934384;28;20031;-80
2023/03/30 10:36:06;;;;;;;15.27;2.25;;;16.90;99.90;;;;;;4934274;28;20053;-82
2023/03/30 10:38:33;;;;;;;10.60;1.90;;;17.40;99.90;;;;;;4936088;28;20023;-80
2023/03/30 10:41:28;;;;;;;13.02;2.25;;;17.10;99.90;;;;;;4935869;28;21699;-83
2023/03/30 10:43:54;;;;;;;13.60;2.25;;;17.30;99.90;;;;;;4925008;28;20118;-81
2023/03/30 10:46:23;;;;;;;9.63;1.95;;;17.30;99.90;;;;;;4938034;28;21754;-78
2023/03/30 10:49:16;;;;;;;27.33;2.35;;;17.30;99.90;;;;;;4937684;28;20024;-80
2023/03/30 10:51:51;;;;;;;;;;;17.10;99.90;;;;;;4953617;28;20167;-85
2023/03/30 10:54:32;;;;;;;10.07;2.58;;;16.90;99.90;;;;;;4937968;28;19930;-81
2023/03/30 10:57:16;;;;;;;12.63;2.53;;;16.70;99.90;;;;;;4939852;28;20027;-81
2023/03/30 11:00:20;;;;;;;11.23;2.55;;;16.60;99.90;;;;;;4938353;28;20431;-82
2023/03/30 11:03:04;;;;;;;12.55;2.38;;;17.20;99.90;;;;;;4887758;29;20599;-81
2023/03/30 11:05:31;;;;;;;;;;;17.30;99.90;;;;;;4934048;28;20046;-83
2023/03/30 11:08:18;;;;;;;15.48;2.58;;;17.50;99.90;;;;;;4939775;28;19914;-81
2023/03/30 11:10:51;;;;;;;15.73;2.47;;;17.60;99.90;;;;;;4937773;28;20356;-81
2023/03/30 11:13:31;;;;;;;16.17;3.50;;;17.30;99.90;;;;;;4936536;28;20034;-81
2023/03/30 11:16:24;;;;;;;13.55;2.75;;;17.30;99.90;;;;;;4939152;28;20170;-82
2023/03/30 11:19:02;;;;;;;13.95;2.80;;;17.60;99.90;;;;;;4936443;28;20035;-81
2023/03/30 11:21:40;;;;;;;14.07;2.80;;;17.50;99.90;;;;;;4960360;28;20042;-85
2023/03/30 11:24:19;;;;;;;13.43;2.17;;;17.70;99.90;;;;;;4945101;28;20479;-81
2023/03/30 11:27:15;;;;;;;14.95;2.00;;;18.60;99.90;;;;;;4942411;28;20594;-79
2023/03/30 11:29:55;;;;;;;9.85;2.10;;;18.70;99.90;;;;;;4943342;28;20023;-81
2023/03/30 11:32:51;;;;;;;14.43;2.88;;;18.80;99.90;;;;;;4935995;28;20502;-81
2023/03/30 11:35:47;;;;;;;12.35;2.45;;;18.40;99.90;;;;;;4942719;28;20043;-83
2023/03/30 11:39:07;;;;;;;14.18;2.97;;;18.20;99.90;;;;;;4946769;28;20063;-84
2023/03/30 11:41:59;;;;;;;14.70;2.72;;;18.60;99.90;;;;;;4903958;29;20032;-81
2023/03/30 11:44:26;;;;;;;14.45;2.90;;;19.00;99.90;;;;;;4937222;28;20102;-81
2023/03/30 11:47:15;;;;;;;13.57;2.67;;;18.90;99.90;;;;;;4942800;28;20448;-82
2023/03/30 11:49:46;;;;;;;12.32;2.95;;;18.50;99.90;;;;;;4945946;28;20104;-81
2023/03/30 11:52:31;;;;;;;13.93;2.58;;;18.10;99.90;;;;;;4956975;28;20023;-80
2023/03/30 11:55:26;;;;;;;17.65;2.75;;;18.50;99.90;;;;;;4942448;28;21314;-84
2023/03/30 11:58:29;;;;;;;15.73;3.10;;;18.30;99.90;;;;;;4938853;28;20450;-90
2023/03/30 12:01:40;;;;;;;14.60;1.92;;;18.60;99.90;;;;;;4946162;28;20210;-87
2023/03/30 12:04:14;;;;;;;10.75;1.90;;;18.50;99.90;;;;;;4948381;28;20462;-92
2023/03/30 12:06:56;;;;;;;14.82;3.28;;;18.40;99.90;;;;;;4944036;28;20030;-90
2023/03/30 12:09:54;;;;;;;16.17;2.55;;;18.10;99.90;;;;;;4967981;28;20126;-85
2023/03/30 12:12:35;;;;;;;12.63;2.63;;;18.10;99.90;;;;;;4952779;28;20031;-88
2023/03/30 12:15:21;;;;;;;15.88;3.90;;;18.30;99.90;;;;;;4950242;28;20050;-91
2023/03/30 12:17:52;;;;;;;11.43;2.88;;;18.30;99.90;;;;;;4948793;28;20016;-86
2023/03/30 12:20:44;;;;;;;15.70;2.63;;;18.80;99.90;;;;;;4944786;28;20487;-91
2023/03/30 12:23:39;;;;;;;18.55;2.97;;;18.80;99.90;;;;;;4936451;28;20093;-90
2023/03/30 12:26:27;;;;;;;19.13;2.92;;;18.70;99.90;;;;;;4924385;28;20523;-91
2023/03/30 12:28:52;;;;;;;11.77;2.42;;;18.70;99.90;;;;;;4943443;28;20125;-86
2023/03/30 12:31:19;;;;;;;16.55;2.80;;;18.50;99.90;;;;;;4940689;28;20062;-85
2023/03/30 12:33:47;;;;;;;10.18;2.10;;;18.30;99.90;;;;;;4936955;28;20351;-91
2023/03/30 12:36:25;;;;;;;13.70;2.40;;;18.30;99.90;;;;;;4946195;28;20031;-90
2023/03/30 12:38:57;;;;;;;14.63;2.50;;;18.20;99.90;;;;;;4955728;28;20439;-91
2023/03/30 12:41:27;;;;;;;14.95;2.38;;;18.20;99.90;;;;;;4957425;28;20491;-91
2023/03/30 12:43:58;;;;;;;9.23;2.15;;;18.10;99.90;;;;;;4945223;28;20051;-91
2023/03/30 12:46:43;;;;;;;18.25;2.88;;;18.00;99.90;;;;;;4944793;28;20030;-84
2023/03/30 12:49:31;;;;;;;10.93;2.60;;;18.10;99.90;;;;;;4954738;28;20027;-89
2023/03/30 12:52:16;;;;;;;16.58;2.40;;;18.10;99.90;;;;;;4959933;28;20024;-84
2023/03/30 12:55:06;;;;;;;17.80;2.47;;;18.20;99.90;;;;;;4940010;28;20478;-84
2023/03/30 12:58:14;;;;;;;7.75;2.17;;;17.80;99.90;;;;;;4943520;28;20043;-79
2023/03/30 13:01:05;;;;;;;11.80;2.50;;;17.40;99.90;;;;;;4910747;28;20046;-83
2023/03/30 13:03:48;;;;;;;8.15;2.05;;;16.70;99.90;;;;;;4955726;28;20423;-86
2023/03/30 13:06:31;;;;;;;12.02;2.63;;;16.30;99.90;;;;;;4949466;28;20027;-86
2023/03/30 13:09:22;;;;;;;11.40;2.30;;;15.70;99.90;;;;;;4948732;28;20031;-86
2023/03/30 13:11:48;;;;;;;12.05;2.20;;;15.40;99.90;;;;;;4941301;28;20307;-82
2023/03/30 13:14:43;;;;;;;8.32;1.77;;;15.20;99.90;;;;;;4945717;28;20110;-82
2023/03/30 13:17:19;;;;;;;9.23;1.77;;;15.10;99.90;;;;;;4952635;28;20027;-84